Wakeman, Ohio
Current Conditions -  °F | °C
As of 3:53 PM on Sunday 23 Nov 2014 (Local Time) from KLPR Reporting Station
Clear Clear  
Wind Chill: 55°   Ceiling: Unl
Heat Index: 55°   Visibility: 10mi
Dew Point: 42°   Wind: 15mph
Humidity: 62%   Direction: 140°SE
Pressure: 29.75"   Gusts: NA
Location:  41.25°N, 82.4°W
Report Text: KLPR 232053Z AUTO 14013KT 10SM CLR 13/06 A2975 RMK AO2 SLP076 T01280056 56049 TSNO
Loading
Personal Weather Stations






























Interactive Weather Map New forecast layout! Learn more

10-Day Weather Forecast

Advertisements
Track Severe Weather on mobile